Startpagina
METAR-TAF:

METAR-TAF

Vliegvelden :

Fairbanks, Alaska, Verenigde Staten

breedte: 64-48-14N, lengte: 147-52-34W, hoogte: 132 m

Actueel weer

Dit bericht is 47 minuten geleden gemaakt, om 23:53 UTC
Wind 3 kt uit het zuidoosten
Temperatuur 11°C
Vochtigheid 35%
Druk 1001 hPa
Zicht: 16.1 km
Weinig wolken op 9000 ft
Verspreide wolken op 15000 ft
Gebroken wolken op 20000 ft

METAR: PAFA 212353Z 14003KT 10SM FEW090 SCT150 BKN200 11/M04 A2957 RMK AO2 SLP019 T01061039 10111 21039 58010 PNO VISNO NE $

Tijdstip: 16:40 (00:40 UTC)

Verwachting

Dit bericht is 1 uur en het 7 minuten geleden gemaakt, om 23:33 UTC
Verwachting geldig van 22 om 00 UTC tot 23 om 06 UTC
Wind 5 kt uit het noordoosten
Zicht: 10 km
Weinig wolken op 9000 ft
Verspreide wolken op 15000 ft
Gebroken wolken op 20000 ft
Van 22 om 0700 UTC
Wind 6 kt uit het noordoosten
Zicht: 10 km
Weinig wolken op 9000 ft
Verspreide wolken op 20000 ft

TAF: PAFA 212333Z 2200/2306 04005KT P6SM FEW090 SCT150 BKN200 FM220700 04006KT P6SM FEW090 SCT200 WS015/12030KT

Waarnemingen en weersverwachtingen van meer dan 4000 vliegvelden (METAR en TAF).

De beschikbare stations zijn de gele en rode punten op de kaart.

Ga met uw muis naar het station om de naam te zien.

Klik dan om waarnemingen en weersverwachtingen te zien.

kaart wijzigen: klik op de groene knoppen met een zwart kruis om in te zoomen, op de groene knop met een streepje om uit te zoomen of op de groene pijlen voor aangrenzende kaarten.


METAR-TAF: